createdAt,value
2023-03-21T00:03:44.515Z,27.42
2023-03-21T00:07:44.600Z,27.42
2023-03-21T00:11:44.700Z,27.43
2023-03-21T00:15:54.113Z,27.40
2023-03-21T00:19:45.800Z,27.42
2023-03-21T00:23:44.825Z,27.43
2023-03-21T00:28:01.058Z,27.43
2023-03-21T00:31:45.759Z,27.47
2023-03-21T00:36:06.778Z,27.47
2023-03-21T00:39:45.691Z,27.44
2023-03-21T00:43:44.578Z,27.47
2023-03-21T00:47:44.690Z,27.49
2023-03-21T00:51:44.679Z,27.45
2023-03-21T00:55:44.819Z,27.47
2023-03-21T00:59:44.988Z,27.44
2023-03-21T01:03:45.141Z,27.49
2023-03-21T01:07:45.356Z,27.48
2023-03-21T01:11:45.453Z,27.47
2023-03-21T01:15:45.669Z,27.49
2023-03-21T01:19:52.093Z,27.48
2023-03-21T01:23:46.801Z,27.49
2023-03-21T01:27:45.771Z,27.49
2023-03-21T01:31:45.863Z,27.49
2023-03-21T01:35:53.447Z,27.51
2023-03-21T01:39:47.020Z,27.49
2023-03-21T01:43:45.960Z,27.55
2023-03-21T01:47:46.034Z,27.53
2023-03-21T01:51:46.132Z,27.52
2023-03-21T01:55:46.280Z,27.53
2023-03-21T01:59:46.434Z,27.52
2023-03-21T02:03:46.651Z,27.52
2023-03-21T02:07:47.519Z,27.53
2023-03-21T02:11:46.850Z,27.52
2023-03-21T02:15:47.038Z,27.53
2023-03-21T02:19:53.084Z,27.53
2023-03-21T02:23:48.222Z,27.53
2023-03-21T02:27:47.110Z,27.54
2023-03-21T02:31:47.178Z,27.57
2023-03-21T02:35:53.690Z,27.56
2023-03-21T02:39:48.285Z,27.56
2023-03-21T02:43:47.229Z,27.56
2023-03-21T02:47:47.389Z,27.56
2023-03-21T02:51:47.577Z,27.57
2023-03-21T02:55:47.724Z,27.57
2023-03-21T02:59:55.525Z,27.54
2023-03-21T03:03:48.861Z,27.60
2023-03-21T03:07:47.846Z,27.58
2023-03-21T03:11:48.017Z,27.58
2023-03-21T03:15:48.257Z,27.58
2023-03-21T03:19:50.552Z,27.57
2023-03-21T03:23:48.343Z,27.63
2023-03-21T03:27:48.326Z,27.61
2023-03-21T03:31:48.329Z,27.60
2023-03-21T03:35:55.792Z,27.58
2023-03-21T03:39:49.209Z,27.64
2023-03-21T03:43:48.170Z,27.55
2023-03-21T03:47:56.706Z,27.60
2023-03-21T03:51:49.328Z,27.61
2023-03-21T03:55:48.286Z,27.60
2023-03-21T03:59:48.546Z,27.58
2023-03-21T04:03:51.692Z,27.58
2023-03-21T04:07:49.490Z,27.58
2023-03-21T04:11:48.442Z,27.62
2023-03-21T04:15:48.630Z,27.58
2023-03-21T04:19:48.897Z,27.58
2023-03-21T04:23:49.073Z,27.59
2023-03-21T04:27:49.014Z,27.65
2023-03-21T04:31:49.165Z,27.65
2023-03-21T04:35:48.974Z,27.63
2023-03-21T04:39:48.898Z,27.62
2023-03-21T04:43:48.863Z,27.63
2023-03-21T04:47:48.818Z,27.60
2023-03-21T04:51:48.825Z,27.63
2023-03-21T04:55:52.423Z,27.65
2023-03-21T04:59:48.720Z,27.62
2023-03-21T05:03:48.673Z,27.60
2023-03-21T05:07:48.810Z,27.64
2023-03-21T05:11:48.805Z,27.56
2023-03-21T05:15:48.761Z,27.64
2023-03-21T05:19:49.111Z,27.63
2023-03-21T05:23:48.692Z,27.64
2023-03-21T05:27:48.679Z,27.61
2023-03-21T05:31:48.644Z,27.63
2023-03-21T05:35:48.625Z,27.63
2023-03-21T05:39:48.587Z,27.60
2023-03-21T05:43:48.497Z,27.56
2023-03-21T05:47:48.655Z,27.57
2023-03-21T05:51:48.606Z,27.57
2023-03-21T05:55:48.586Z,27.53
2023-03-21T05:59:48.642Z,27.54
2023-03-21T06:03:48.491Z,27.47
2023-03-21T06:07:48.480Z,27.52
2023-03-21T06:11:48.401Z,27.54
2023-03-21T06:15:48.469Z,27.51
2023-03-21T06:19:48.367Z,27.47
2023-03-21T06:23:48.310Z,27.49
2023-03-21T06:27:48.296Z,27.47
2023-03-21T06:31:48.344Z,27.50
2023-03-21T06:35:48.367Z,26.56
2023-03-21T06:39:48.422Z,27.57
2023-03-21T06:43:48.716Z,28.70
2023-03-21T06:47:48.646Z,28.43
2023-03-21T06:51:48.706Z,28.75
2023-03-21T06:55:48.786Z,29.12
2023-03-21T06:59:49.185Z,29.24
2023-03-21T07:03:49.198Z,29.69
2023-03-21T07:07:48.697Z,29.93
2023-03-21T07:11:48.646Z,30.15
2023-03-21T07:15:48.660Z,30.47
2023-03-21T07:19:48.583Z,30.52
2023-03-21T07:23:48.536Z,30.84
2023-03-21T07:27:48.550Z,30.96
2023-03-21T07:31:48.531Z,31.12
2023-03-21T07:35:48.726Z,31.67
2023-03-21T07:39:48.649Z,27.90
2023-03-21T07:43:48.417Z,29.66
2023-03-21T07:47:48.488Z,30.54
2023-03-21T07:51:48.406Z,31.14
2023-03-21T07:55:48.324Z,31.11
2023-03-21T07:59:48.252Z,31.10
2023-03-21T08:03:48.280Z,31.24
2023-03-21T08:07:48.300Z,31.16
2023-03-21T08:11:48.253Z,31.30
2023-03-21T08:15:48.378Z,31.33
2023-03-21T08:19:48.240Z,31.15
2023-03-21T08:23:48.170Z,31.21
2023-03-21T08:27:48.142Z,31.31
2023-03-21T08:31:48.213Z,31.40
2023-03-21T08:35:48.198Z,27.77
2023-03-21T08:39:48.031Z,30.09
2023-03-21T08:43:47.950Z,30.33
2023-03-21T08:47:47.980Z,30.25
2023-03-21T08:51:47.908Z,29.78
2023-03-21T08:55:48.219Z,28.25
2023-03-21T08:59:47.838Z,29.51
2023-03-21T09:03:47.830Z,29.93
2023-03-21T09:07:47.785Z,29.88
2023-03-21T09:11:48.246Z,29.95
2023-03-21T09:15:48.031Z,30.05
2023-03-21T09:19:48.020Z,30.23
2023-03-21T09:23:48.072Z,29.50
2023-03-21T09:27:48.172Z,29.97
2023-03-21T09:31:48.315Z,30.17
2023-03-21T09:35:50.656Z,27.05
2023-03-21T09:39:48.109Z,26.02
2023-03-21T09:43:48.411Z,26.70
2023-03-21T09:47:48.053Z,27.85
2023-03-21T09:51:48.006Z,28.62
2023-03-21T09:55:47.980Z,29.05
2023-03-21T09:59:48.208Z,29.05
2023-03-21T10:03:48.321Z,29.42
2023-03-21T10:07:47.879Z,29.10
2023-03-21T10:11:48.225Z,29.05
2023-03-21T10:15:48.216Z,28.78
2023-03-21T10:19:48.234Z,28.90
2023-03-21T10:23:48.265Z,28.65
2023-03-21T10:27:47.867Z,28.43
2023-03-21T10:31:47.926Z,28.46
2023-03-21T10:35:48.257Z,28.72
2023-03-21T10:39:48.235Z,28.82
2023-03-21T10:43:47.735Z,28.49
2023-03-21T10:47:47.881Z,28.46
2023-03-21T10:51:47.656Z,28.38
2023-03-21T10:55:47.615Z,28.32
2023-03-21T10:59:47.610Z,28.22
2023-03-21T11:03:47.557Z,28.18
2023-03-21T11:07:47.529Z,28.18
2023-03-21T11:11:49.153Z,28.31
2023-03-21T11:15:47.611Z,28.23
2023-03-21T11:19:47.781Z,28.10
2023-03-21T11:23:48.270Z,27.94
2023-03-21T11:27:48.289Z,27.93
2023-03-21T11:31:48.180Z,27.91
2023-03-21T11:35:48.250Z,27.93
2023-03-21T11:39:48.778Z,27.82
2023-03-21T11:43:48.348Z,27.86
2023-03-21T11:47:48.561Z,27.77
2023-03-21T11:51:48.615Z,27.76
2023-03-21T11:55:48.652Z,27.65
2023-03-21T11:59:48.777Z,27.72
2023-03-21T12:03:49.357Z,27.69
2023-03-21T12:07:48.981Z,27.63
2023-03-21T12:11:49.014Z,27.59
2023-03-21T12:15:49.227Z,27.53
2023-03-21T12:19:49.198Z,27.56
2023-03-21T12:23:49.282Z,27.52
2023-03-21T12:27:49.380Z,27.50
2023-03-21T12:31:49.516Z,27.49
2023-03-21T12:35:49.656Z,27.48
2023-03-21T12:39:49.671Z,27.46
2023-03-21T12:43:49.806Z,27.43
2023-03-21T12:47:49.848Z,27.46
2023-03-21T12:51:49.888Z,27.46
2023-03-21T12:55:49.940Z,27.45
2023-03-21T12:59:50.118Z,27.46
2023-03-21T13:03:50.148Z,27.47
2023-03-21T13:07:50.213Z,27.43
2023-03-21T13:11:50.314Z,27.47
2023-03-21T13:15:50.533Z,27.43
2023-03-21T13:19:50.542Z,27.42
2023-03-21T13:23:50.612Z,27.52
2023-03-21T13:27:50.733Z,27.44
2023-03-21T13:31:52.415Z,27.37
2023-03-21T13:35:50.947Z,27.42
2023-03-21T13:39:51.070Z,27.38
2023-03-21T13:43:51.207Z,27.42
2023-03-21T13:47:51.474Z,27.40
2023-03-21T13:51:51.516Z,27.31
2023-03-21T13:55:51.606Z,27.36
2023-03-21T13:59:51.706Z,27.34
2023-03-21T14:03:52.003Z,27.21
2023-03-21T14:07:52.835Z,27.23
2023-03-21T14:11:54.682Z,27.20
2023-03-21T14:15:55.989Z,27.23
2023-03-21T14:19:52.239Z,27.24
2023-03-21T14:23:52.108Z,27.24
2023-03-21T14:27:52.080Z,27.28
2023-03-21T14:31:52.102Z,27.27
2023-03-21T14:35:52.143Z,27.29
2023-03-21T14:39:52.022Z,27.27
2023-03-21T14:43:51.947Z,27.28
2023-03-21T14:47:52.012Z,27.29
2023-03-21T14:51:52.215Z,27.32
2023-03-21T14:55:52.273Z,27.36
2023-03-21T14:59:52.419Z,27.36
2023-03-21T15:03:52.582Z,27.36
2023-03-21T15:07:52.798Z,27.34
2023-03-21T15:11:52.902Z,27.32
2023-03-21T15:15:53.103Z,27.36
2023-03-21T15:19:53.148Z,27.40
2023-03-21T15:23:53.445Z,27.38
2023-03-21T15:27:53.524Z,27.37
2023-03-21T15:31:53.768Z,27.33
2023-03-21T15:35:53.944Z,27.36
2023-03-21T15:39:54.126Z,27.37
2023-03-21T15:43:54.232Z,27.30
2023-03-21T15:47:54.506Z,27.40
2023-03-21T15:51:54.641Z,27.38
2023-03-21T15:55:54.833Z,27.37
2023-03-21T15:59:54.967Z,27.37
2023-03-21T16:03:55.172Z,27.39
2023-03-21T16:07:55.366Z,27.35
2023-03-21T16:11:55.657Z,27.39
2023-03-21T16:15:55.749Z,27.43
2023-03-21T16:19:55.988Z,27.36
2023-03-21T16:23:56.214Z,27.39
2023-03-21T16:27:56.396Z,27.39
2023-03-21T16:31:56.743Z,27.39
2023-03-21T16:35:56.673Z,27.33
2023-03-21T16:39:56.653Z,27.37
2023-03-21T16:43:56.609Z,27.37
2023-03-21T16:47:56.565Z,27.34
2023-03-21T16:51:56.480Z,27.32
2023-03-21T16:55:56.516Z,27.35
2023-03-21T16:59:56.502Z,27.36
2023-03-21T17:03:56.397Z,27.36
2023-03-21T17:07:56.354Z,27.36
2023-03-21T17:11:56.491Z,27.37
2023-03-21T17:15:56.429Z,27.38
2023-03-21T17:19:56.397Z,27.36
2023-03-21T17:23:56.379Z,27.36
2023-03-21T17:27:56.345Z,27.36
2023-03-21T17:31:56.324Z,27.37
2023-03-21T17:35:56.303Z,27.37
2023-03-21T17:39:56.249Z,27.42
2023-03-21T17:43:56.191Z,27.44
2023-03-21T17:47:56.205Z,27.49
2023-03-21T17:51:56.148Z,27.48
2023-03-21T17:55:56.173Z,27.52
2023-03-21T17:59:56.061Z,27.58
2023-03-21T18:03:56.054Z,27.62
2023-03-21T18:08:12.593Z,27.61
2023-03-21T18:11:56.983Z,27.67
2023-03-21T18:15:56.603Z,27.64
2023-03-21T18:19:55.893Z,27.66
2023-03-21T18:23:55.881Z,27.68
2023-03-21T18:28:10.063Z,27.68
2023-03-21T18:32:05.939Z,27.76
2023-03-21T18:36:00.133Z,27.78
2023-03-21T18:39:55.873Z,27.78
2023-03-21T18:44:05.313Z,27.78
2023-03-21T18:47:56.676Z,27.77
2023-03-21T18:51:55.813Z,27.79
2023-03-21T18:55:55.654Z,27.77
2023-03-21T18:59:55.575Z,27.77
2023-03-21T19:04:16.525Z,27.83
2023-03-21T19:07:56.531Z,27.90
2023-03-21T19:11:55.445Z,27.90
2023-03-21T19:15:56.234Z,27.97
2023-03-21T19:19:55.408Z,27.94
2023-03-21T19:27:56.310Z,27.94
2023-03-21T19:31:55.339Z,27.92
2023-03-21T19:36:11.162Z,27.98
2023-03-21T19:39:56.328Z,27.91
2023-03-21T19:43:56.594Z,27.92
2023-03-21T19:47:55.159Z,27.93
2023-03-21T19:51:55.126Z,27.95
2023-03-21T19:55:55.086Z,27.99
2023-03-21T19:59:55.040Z,27.99
2023-03-21T20:03:55.094Z,28.00
2023-03-21T20:07:55.336Z,27.96
2023-03-21T20:11:55.236Z,27.99
2023-03-21T20:15:57.083Z,27.99
2023-03-21T20:19:55.283Z,27.96
2023-03-21T20:23:55.292Z,27.98
2023-03-21T20:28:12.905Z,28.01
2023-03-21T20:31:56.191Z,27.94
2023-03-21T20:39:56.112Z,27.97
2023-03-21T20:47:56.156Z,27.98
2023-03-21T20:55:56.017Z,27.94
2023-03-21T20:59:54.990Z,28.03
2023-03-21T21:03:54.955Z,27.95
2023-03-21T21:07:54.897Z,27.98
2023-03-21T21:12:10.845Z,27.96
2023-03-21T21:15:55.997Z,27.96
2023-03-21T21:19:54.849Z,27.99
2023-03-21T21:23:54.869Z,27.98
2023-03-21T21:27:54.843Z,27.95
2023-03-21T21:31:54.829Z,27.93
2023-03-21T21:35:55.019Z,27.95
2023-03-21T21:39:55.035Z,27.96
2023-03-21T21:43:55.129Z,27.93
2023-03-21T21:47:55.282Z,27.92
2023-03-21T21:51:55.322Z,27.93
2023-03-21T21:55:55.451Z,27.89
2023-03-21T21:59:55.541Z,27.93
2023-03-21T22:03:55.631Z,27.89
2023-03-21T22:07:55.813Z,27.96
2023-03-21T22:11:55.930Z,27.93
2023-03-21T22:15:55.993Z,27.92
2023-03-21T22:20:05.749Z,27.90
2023-03-21T22:23:57.078Z,27.94
2023-03-21T22:27:56.075Z,27.86
2023-03-21T22:31:56.124Z,27.90
2023-03-21T22:35:56.093Z,27.94
2023-03-21T22:39:56.217Z,27.91
2023-03-21T22:44:02.972Z,27.94
2023-03-21T22:47:56.391Z,27.95
2023-03-21T22:51:56.239Z,27.91
2023-03-21T22:55:56.233Z,27.95
2023-03-21T22:59:56.200Z,27.93
2023-03-21T23:03:56.175Z,27.96
2023-03-21T23:07:56.143Z,27.93
2023-03-21T23:11:56.061Z,27.98
2023-03-21T23:15:56.076Z,28.05
2023-03-21T23:19:56.032Z,28.01
2023-03-21T23:23:55.970Z,27.99
2023-03-21T23:27:55.998Z,28.02
2023-03-21T23:31:56.199Z,28.02
2023-03-21T23:35:56.395Z,28.03
2023-03-21T23:39:56.487Z,28.09
2023-03-21T23:43:56.659Z,28.06
2023-03-21T23:47:56.854Z,28.09
2023-03-21T23:51:56.977Z,28.10
2023-03-21T23:55:57.082Z,28.12
2023-03-21T23:59:57.285Z,28.12
